Old Willapa, Washington
Current Conditions -  °F | °C
As of 2:53 PM on Tuesday 27 Jan 2015 (Local Time) from KHQM Reporting Station
Overcast Overcast  
Wind Chill: 51°   Ceiling: 900
Heat Index: 51°   Visibility: 7mi
Dew Point: 47°   Wind: 10mph
Humidity: 86%   Direction: 280°W
Pressure: 30.12"   Gusts: NA
Location:  46.6563°N, 123.58°W
Report Text: KHQM 272253Z AUTO 28009KT 7SM BKN009 OVC026 11/08 A3012 RMK AO2 SLP204 T01060083 $
Loading
Personal Weather Stations






























Interactive Weather Map New forecast layout! Learn more

10-Day Weather Forecast

Advertisements
Track Severe Weather on mobile